createdAt,value
2022-09-02T00:01:57.442Z,72.03
2022-09-02T00:04:27.345Z,71.68
2022-09-02T00:06:55.677Z,71.77
2022-09-02T00:09:26.094Z,71.60
2022-09-02T00:11:55.553Z,71.80
2022-09-02T00:14:27.971Z,72.99
2022-09-02T00:16:56.319Z,73.25
2022-09-02T00:19:26.740Z,73.50
2022-09-02T00:21:56.846Z,74.11
2022-09-02T00:24:26.164Z,74.31
2022-09-02T00:26:56.631Z,74.08
2022-09-02T00:29:25.780Z,74.17
2022-09-02T00:31:54.060Z,74.65
2022-09-02T00:34:22.046Z,75.69
2022-09-02T00:36:49.717Z,75.46
2022-09-02T00:39:18.290Z,76.05
2022-09-02T00:41:46.307Z,75.56
2022-09-02T00:44:17.300Z,75.36
2022-09-02T00:46:45.779Z,76.00
2022-09-02T00:49:18.912Z,76.01
2022-09-02T00:51:56.748Z,76.44
2022-09-02T00:54:27.187Z,76.58
2022-09-02T00:56:55.985Z,76.85
2022-09-02T00:59:47.712Z,76.53
2022-09-02T01:02:16.306Z,76.81
2022-09-02T01:04:44.312Z,76.53
2022-09-02T01:07:12.082Z,76.60
2022-09-02T01:09:40.353Z,76.44
2022-09-02T01:12:09.570Z,76.89
2022-09-02T01:14:37.234Z,77.08
2022-09-02T01:17:05.239Z,77.06
2022-09-02T01:19:37.726Z,77.34
2022-09-02T01:22:17.114Z,77.39
2022-09-02T01:24:44.795Z,78.67
2022-09-02T01:27:17.393Z,78.60
2022-09-02T01:29:45.869Z,78.53
2022-09-02T01:32:13.722Z,78.46
2022-09-02T01:34:41.437Z,79.08
2022-09-02T01:37:09.798Z,78.39
2022-09-02T01:39:37.533Z,77.74
2022-09-02T01:42:05.483Z,77.51
2022-09-02T01:44:35.903Z,77.59
2022-09-02T01:47:03.690Z,78.39
2022-09-02T01:49:32.530Z,78.51
2022-09-02T01:52:04.747Z,79.25
2022-09-02T01:54:32.469Z,78.56
2022-09-02T01:57:00.220Z,79.37
2022-09-02T01:59:27.943Z,79.51
2022-09-02T02:01:55.755Z,79.70
2022-09-02T02:04:25.948Z,79.83
2022-09-02T02:06:53.731Z,79.71
2022-09-02T02:09:23.382Z,79.99
2022-09-02T02:11:51.104Z,79.41
2022-09-02T02:14:19.161Z,79.44
2022-09-02T02:16:48.071Z,78.95
2022-09-02T02:19:16.024Z,78.82
2022-09-02T02:21:44.014Z,79.01
2022-09-02T02:24:11.788Z,79.03
2022-09-02T02:26:39.530Z,79.63
2022-09-02T02:29:07.490Z,79.72
2022-09-02T02:31:35.359Z,79.32
2022-09-02T02:34:03.180Z,79.33
2022-09-02T02:36:31.050Z,79.10
2022-09-02T02:38:59.305Z,79.57
2022-09-02T02:41:27.694Z,80.23
2022-09-02T02:43:55.591Z,80.54
2022-09-02T02:46:23.330Z,80.26
2022-09-02T02:48:51.059Z,80.02
2022-09-02T02:51:18.774Z,80.04
2022-09-02T02:53:46.499Z,80.15
2022-09-02T02:56:14.255Z,79.75
2022-09-02T02:58:42.085Z,79.45
2022-09-02T03:01:12.466Z,79.93
2022-09-02T03:03:40.217Z,81.36
2022-09-02T03:06:08.225Z,80.91
2022-09-02T03:08:36.863Z,80.96
2022-09-02T03:11:08.221Z,81.07
2022-09-02T03:13:36.531Z,80.77
2022-09-02T03:16:07.393Z,80.30
2022-09-02T03:18:35.789Z,80.12
2022-09-02T03:21:08.604Z,80.46
2022-09-02T03:23:37.089Z,80.00
2022-09-02T03:26:09.934Z,79.74
2022-09-02T03:28:37.731Z,80.28
2022-09-02T03:31:07.308Z,81.18
2022-09-02T03:33:35.311Z,80.91
2022-09-02T03:36:03.116Z,81.12
2022-09-02T03:38:30.818Z,80.70
2022-09-02T03:40:58.446Z,80.80
2022-09-02T03:43:26.169Z,81.01
2022-09-02T03:45:53.924Z,81.50
2022-09-02T03:48:24.342Z,81.35
2022-09-02T03:50:52.083Z,81.26
2022-09-02T03:53:20.554Z,80.99
2022-09-02T03:55:50.577Z,81.16
2022-09-02T03:58:18.545Z,81.51
2022-09-02T04:00:51.485Z,81.77
2022-09-02T04:03:19.733Z,81.81
2022-09-02T04:05:49.290Z,82.35
2022-09-02T04:08:17.042Z,82.36
2022-09-02T04:10:44.869Z,82.07
2022-09-02T04:13:13.153Z,82.66
2022-09-02T04:15:45.990Z,82.82
2022-09-02T04:19:09.689Z,82.39
2022-09-02T04:21:39.970Z,82.46
2022-09-02T04:24:10.471Z,82.45
2022-09-02T04:26:44.892Z,82.01
2022-09-02T04:29:13.325Z,82.08
2022-09-02T04:31:40.999Z,82.05
2022-09-02T04:34:08.698Z,81.99
2022-09-02T04:36:36.819Z,82.08
2022-09-02T04:39:05.389Z,81.87
2022-09-02T04:41:33.149Z,81.90
2022-09-02T04:44:01.384Z,81.12
2022-09-02T04:46:33.976Z,81.08
2022-09-02T04:49:03.773Z,81.47
2022-09-02T04:51:32.404Z,81.53
2022-09-02T04:54:00.144Z,81.44
2022-09-02T04:56:30.165Z,82.15
2022-09-02T04:58:57.910Z,81.89
2022-09-02T05:01:28.588Z,82.25
2022-09-02T05:03:56.636Z,82.23
2022-09-02T05:06:29.817Z,81.67
2022-09-02T05:09:00.700Z,82.05
2022-09-02T05:11:30.539Z,82.00
2022-09-02T05:14:00.616Z,82.15
2022-09-02T05:16:32.040Z,82.38
2022-09-02T05:19:01.378Z,82.23
2022-09-02T05:21:29.059Z,82.38
2022-09-02T05:23:56.827Z,82.45
2022-09-02T05:26:25.446Z,82.70
2022-09-02T05:28:53.456Z,82.84
2022-09-02T05:31:22.540Z,82.87
2022-09-02T05:33:50.636Z,83.04
2022-09-02T05:36:21.520Z,82.95
2022-09-02T05:38:50.254Z,82.84
2022-09-02T05:41:26.009Z,82.19
2022-09-02T05:43:56.320Z,82.24
2022-09-02T05:46:25.557Z,82.31
2022-09-02T05:49:13.381Z,81.70
2022-09-02T05:51:52.429Z,81.36
2022-09-02T05:54:26.652Z,80.76
2022-09-02T05:56:57.359Z,80.26
2022-09-02T05:59:28.126Z,80.78
2022-09-02T06:01:56.760Z,79.92
2022-09-02T06:04:25.105Z,80.13
2022-09-02T06:06:53.431Z,79.97
2022-09-02T06:09:23.761Z,80.08
2022-09-02T06:11:52.762Z,79.82
2022-09-02T06:14:26.172Z,79.77
2022-09-02T06:16:56.048Z,79.91
2022-09-02T06:19:26.352Z,79.71
2022-09-02T06:21:55.932Z,79.49
2022-09-02T06:24:24.596Z,79.48
2022-09-02T06:26:54.560Z,78.93
2022-09-02T06:29:25.067Z,79.13
2022-09-02T06:31:53.124Z,78.81
2022-09-02T06:34:22.965Z,79.08
2022-09-02T06:36:51.709Z,78.86
2022-09-02T06:39:21.804Z,79.12
2022-09-02T06:41:50.124Z,78.87
2022-09-02T06:44:19.938Z,78.39
2022-09-02T06:46:54.388Z,77.76
2022-09-02T06:49:23.156Z,76.59
2022-09-02T06:51:52.925Z,77.41
2022-09-02T06:54:23.000Z,77.43
2022-09-02T06:56:52.215Z,76.55
2022-09-02T06:59:21.811Z,75.74
2022-09-02T07:01:50.631Z,76.54
2022-09-02T07:04:37.795Z,76.67
2022-09-02T07:07:08.283Z,76.63
2022-09-02T07:09:36.503Z,76.72
2022-09-02T07:12:05.757Z,76.47
2022-09-02T07:14:39.530Z,76.42
2022-09-02T07:17:07.576Z,76.42
2022-09-02T07:19:35.483Z,76.38
2022-09-02T07:22:08.251Z,76.66
2022-09-02T07:24:36.331Z,76.73
2022-09-02T07:27:04.649Z,76.91
2022-09-02T07:29:33.154Z,76.89
2022-09-02T07:32:00.927Z,76.79
2022-09-02T07:34:28.762Z,76.81
2022-09-02T07:37:01.768Z,75.71
2022-09-02T07:39:31.169Z,75.38
2022-09-02T07:41:59.320Z,75.48
2022-09-02T07:44:28.344Z,74.83
2022-09-02T07:46:56.216Z,75.48
2022-09-02T07:49:25.307Z,75.63
2022-09-02T07:51:53.523Z,75.86
2022-09-02T07:54:24.334Z,75.88
2022-09-02T07:56:52.874Z,75.31
2022-09-02T07:59:22.874Z,75.35
2022-09-02T08:01:50.782Z,75.11
2022-09-02T08:04:21.207Z,74.92
2022-09-02T08:06:48.960Z,73.71
2022-09-02T08:09:16.702Z,74.20
2022-09-02T08:11:47.625Z,74.32
2022-09-02T08:14:19.256Z,74.55
2022-09-02T08:16:48.142Z,75.05
2022-09-02T08:19:16.482Z,74.71
2022-09-02T08:21:44.212Z,73.91
2022-09-02T08:24:12.152Z,73.00
2022-09-02T08:26:39.947Z,73.23
2022-09-02T08:29:09.235Z,72.67
2022-09-02T08:31:40.945Z,71.76
2022-09-02T08:34:08.774Z,70.56
2022-09-02T08:36:36.505Z,70.63
2022-09-02T08:39:06.435Z,70.54
2022-09-02T08:41:50.306Z,70.08
2022-09-02T08:44:23.140Z,69.09
2022-09-02T08:46:55.037Z,69.34
2022-09-02T08:49:32.739Z,69.44
2022-09-02T08:52:04.737Z,69.41
2022-09-02T08:54:38.452Z,69.37
2022-09-02T08:57:06.433Z,69.31
2022-09-02T08:59:34.321Z,69.67
2022-09-02T09:02:25.313Z,69.55
2022-09-02T09:05:31.807Z,69.04
2022-09-02T09:08:21.476Z,69.28
2022-09-02T09:10:55.919Z,68.73
2022-09-02T09:13:29.486Z,68.91
2022-09-02T09:16:09.209Z,68.64
2022-09-02T09:18:42.952Z,68.31
2022-09-02T09:21:12.155Z,68.28
2022-09-02T09:23:41.767Z,68.35
2022-09-02T09:26:14.725Z,68.15
2022-09-02T09:28:45.059Z,68.17
2022-09-02T09:31:16.060Z,67.92
2022-09-02T09:34:16.028Z,68.18
2022-09-02T09:36:47.089Z,67.39
2022-09-02T09:39:19.025Z,68.13
2022-09-02T09:41:48.555Z,67.71
2022-09-02T09:44:39.693Z,67.24
2022-09-02T09:47:13.635Z,66.10
2022-09-02T09:49:45.158Z,67.26
2022-09-02T09:52:12.916Z,67.65
2022-09-02T09:54:40.586Z,67.33
2022-09-02T09:57:18.329Z,67.49
2022-09-02T09:59:51.057Z,67.08
2022-09-02T10:02:26.709Z,66.92
2022-09-02T10:05:10.417Z,66.87
2022-09-02T10:07:45.228Z,67.03
2022-09-02T10:10:18.864Z,65.60
2022-09-02T10:12:48.854Z,65.96
2022-09-02T10:15:21.863Z,65.64
2022-09-02T10:18:08.064Z,65.52
2022-09-02T10:24:15.462Z,64.98
2022-09-02T10:26:53.539Z,64.82
2022-09-02T10:29:27.251Z,64.66
2022-09-02T10:32:14.088Z,64.36
2022-09-02T10:34:56.915Z,63.73
2022-09-02T10:37:26.339Z,63.40
2022-09-02T10:40:10.920Z,63.51
2022-09-02T10:43:20.473Z,62.96
2022-09-02T10:45:52.062Z,63.03
2022-09-02T10:48:34.815Z,63.02
2022-09-02T10:51:06.894Z,62.62
2022-09-02T10:53:45.409Z,62.36
2022-09-02T10:56:22.750Z,62.48
2022-09-02T10:59:09.067Z,62.09
2022-09-02T11:01:40.759Z,62.39
2022-09-02T11:04:38.716Z,61.90
2022-09-02T11:07:11.888Z,61.63
2022-09-02T11:09:49.080Z,61.72
2022-09-02T11:12:32.202Z,62.04
2022-09-02T11:15:11.245Z,60.65
2022-09-02T11:18:05.030Z,61.05
2022-09-02T11:20:51.954Z,61.21
2022-09-02T11:23:35.402Z,60.70
2022-09-02T11:26:17.384Z,60.62
2022-09-02T11:29:05.479Z,60.60
2022-09-02T11:31:44.508Z,60.48
2022-09-02T11:34:36.852Z,59.96
2022-09-02T11:37:11.383Z,60.25
2022-09-02T11:39:59.194Z,60.74
2022-09-02T11:43:03.689Z,60.32
2022-09-02T11:46:16.758Z,60.13
2022-09-02T11:49:24.373Z,59.78
2022-09-02T11:52:10.692Z,60.00
2022-09-02T11:54:45.558Z,60.60
2022-09-02T11:57:21.855Z,59.98
2022-09-02T11:59:52.485Z,59.90
2022-09-02T12:02:38.140Z,59.90
2022-09-02T12:05:33.486Z,60.01
2022-09-02T12:08:13.349Z,59.64
2022-09-02T12:10:42.025Z,59.77
2022-09-02T12:13:10.529Z,59.68
2022-09-02T12:15:39.650Z,59.33
2022-09-02T12:18:13.273Z,59.13
2022-09-02T12:20:42.454Z,59.02
2022-09-02T12:23:31.937Z,59.14
2022-09-02T12:26:03.938Z,59.00
2022-09-02T12:28:32.270Z,58.67
2022-09-02T12:31:02.813Z,58.65
2022-09-02T12:33:38.643Z,58.72
2022-09-02T12:36:09.060Z,58.18
2022-09-02T12:38:42.290Z,58.17
2022-09-02T12:41:23.139Z,58.07
2022-09-02T12:44:04.580Z,57.57
2022-09-02T12:46:55.089Z,57.90
2022-09-02T12:49:37.149Z,57.95
2022-09-02T12:52:13.193Z,58.68
2022-09-02T12:54:40.755Z,58.58
2022-09-02T12:57:10.027Z,58.69
2022-09-02T12:59:41.293Z,58.70
2022-09-02T13:02:39.854Z,58.58
2022-09-02T13:06:01.836Z,57.77
2022-09-02T13:09:15.171Z,56.52
2022-09-02T13:12:19.903Z,57.41
2022-09-02T13:15:03.417Z,57.63
2022-09-02T13:18:21.949Z,56.63
2022-09-02T13:21:30.686Z,56.08
2022-09-02T13:24:19.181Z,55.80
2022-09-02T13:27:33.410Z,56.23
2022-09-02T13:30:15.064Z,55.94
2022-09-02T13:32:43.540Z,56.63
2022-09-02T13:35:24.033Z,56.97
2022-09-02T13:38:00.869Z,56.89
2022-09-02T13:40:35.072Z,56.61
2022-09-02T13:43:05.888Z,56.89
2022-09-02T13:45:37.384Z,57.26
2022-09-02T13:48:29.647Z,57.28
2022-09-02T13:51:00.483Z,57.35
2022-09-02T13:53:45.975Z,57.54
2022-09-02T13:56:28.353Z,57.34
2022-09-02T13:58:59.550Z,56.95
2022-09-02T14:01:36.768Z,57.28
2022-09-02T14:04:10.470Z,57.26
2022-09-02T14:06:48.675Z,56.51
2022-09-02T14:09:26.901Z,57.01
2022-09-02T14:11:55.680Z,57.18
2022-09-02T14:14:25.370Z,57.56
2022-09-02T14:16:53.829Z,57.87
2022-09-02T14:19:21.418Z,57.79
2022-09-02T14:21:50.774Z,56.97
2022-09-02T14:24:24.387Z,56.31
2022-09-02T14:26:58.060Z,55.66
2022-09-02T14:29:27.540Z,55.86
2022-09-02T14:32:26.103Z,55.96
2022-09-02T14:35:22.405Z,55.86
2022-09-02T14:37:57.016Z,55.80
2022-09-02T14:40:37.315Z,56.11
2022-09-02T14:43:05.906Z,56.11
2022-09-02T14:45:35.725Z,56.29
2022-09-02T14:48:17.706Z,56.47
2022-09-02T14:50:45.446Z,56.32
2022-09-02T14:53:20.887Z,56.67
2022-09-02T14:55:54.284Z,56.69
2022-09-02T14:58:27.085Z,56.20
2022-09-02T15:01:01.136Z,56.66
2022-09-02T15:03:32.873Z,57.28
2022-09-02T15:06:00.542Z,57.20
2022-09-02T15:08:28.353Z,57.01
2022-09-02T15:11:00.939Z,56.61
2022-09-02T15:13:35.105Z,55.94
2022-09-02T15:16:03.624Z,55.90
2022-09-02T15:18:31.579Z,56.27
2022-09-02T15:20:59.464Z,56.11
2022-09-02T15:23:29.392Z,56.04
2022-09-02T15:25:58.254Z,55.92
2022-09-02T15:28:25.954Z,55.66
2022-09-02T15:31:01.036Z,55.62
2022-09-02T15:33:29.653Z,55.11
2022-09-02T15:36:07.857Z,55.25
2022-09-02T15:38:36.174Z,54.25
2022-09-02T15:41:16.481Z,54.69
2022-09-02T15:43:45.183Z,55.39
2022-09-02T15:46:27.426Z,55.50
2022-09-02T15:49:00.340Z,54.75
2022-09-02T15:51:29.990Z,55.19
2022-09-02T15:53:59.796Z,55.46
2022-09-02T15:56:29.198Z,55.39
2022-09-02T15:58:59.131Z,54.92
2022-09-02T16:01:31.526Z,54.85
2022-09-02T16:04:00.068Z,54.90
2022-09-02T16:06:27.818Z,55.09
2022-09-02T16:08:56.616Z,55.58
2022-09-02T16:11:24.390Z,56.07
2022-09-02T16:13:52.342Z,56.29
2022-09-02T16:16:20.791Z,56.41
2022-09-02T16:18:53.833Z,56.36
2022-09-02T16:21:23.610Z,56.61
2022-09-02T16:23:52.762Z,56.74
2022-09-02T16:26:28.773Z,57.24
2022-09-02T16:29:01.951Z,57.72
2022-09-02T16:31:32.353Z,57.46
2022-09-02T16:34:15.204Z,57.49
2022-09-02T16:36:48.127Z,57.52
2022-09-02T16:39:16.474Z,57.86
2022-09-02T16:41:47.090Z,58.09
2022-09-02T16:44:17.515Z,58.46
2022-09-02T16:46:46.765Z,58.80
2022-09-02T16:49:19.446Z,59.16
2022-09-02T16:51:48.695Z,59.78
2022-09-02T16:54:21.125Z,60.47
2022-09-02T16:56:50.552Z,61.02
2022-09-02T16:59:20.239Z,61.54
2022-09-02T17:01:48.072Z,62.01
2022-09-02T17:04:15.875Z,62.45
2022-09-02T17:06:44.257Z,62.90
2022-09-02T17:09:12.062Z,62.95
2022-09-02T17:11:42.228Z,62.74
2022-09-02T17:14:12.863Z,62.69
2022-09-02T17:16:46.138Z,62.79
2022-09-02T17:19:22.572Z,62.98
2022-09-02T17:21:54.612Z,63.10
2022-09-02T17:24:24.860Z,63.22
2022-09-02T17:26:56.786Z,63.39
2022-09-02T17:32:13.963Z,63.45
2022-09-02T17:34:41.961Z,63.18
2022-09-02T17:37:09.708Z,62.97
2022-09-02T17:39:37.652Z,62.94
2022-09-02T17:42:06.784Z,63.13
2022-09-02T17:44:37.672Z,63.33
2022-09-02T17:47:12.553Z,63.46
2022-09-02T17:49:43.275Z,63.74
2022-09-02T17:52:13.801Z,63.62
2022-09-02T17:54:42.734Z,63.91
2022-09-02T17:57:21.661Z,63.98
2022-09-02T18:00:12.478Z,64.26
2022-09-02T18:02:55.610Z,64.81
2022-09-02T18:05:29.508Z,64.75
2022-09-02T18:08:12.745Z,65.23
2022-09-02T18:10:58.830Z,65.64
2022-09-02T18:13:41.153Z,65.94
2022-09-02T18:16:51.629Z,66.34
2022-09-02T18:19:29.481Z,66.50
2022-09-02T18:22:15.634Z,66.65
2022-09-02T18:25:00.083Z,66.54
2022-09-02T18:27:34.097Z,66.83
2022-09-02T18:30:04.703Z,67.16
2022-09-02T18:33:00.269Z,67.20
2022-09-02T18:35:33.930Z,67.65
2022-09-02T18:38:13.773Z,67.76
2022-09-02T18:41:12.131Z,67.99
2022-09-02T18:43:54.650Z,68.11
2022-09-02T18:46:25.152Z,68.33
2022-09-02T18:48:57.502Z,67.96
2022-09-02T18:51:40.141Z,67.92
2022-09-02T18:54:20.058Z,68.28
2022-09-02T18:56:57.802Z,68.39
2022-09-02T19:00:02.318Z,68.43
2022-09-02T19:02:39.782Z,68.68
2022-09-02T19:05:11.555Z,68.66
2022-09-02T19:07:57.954Z,68.80
2022-09-02T19:10:25.677Z,69.13
2022-09-02T19:12:54.434Z,69.57
2022-09-02T19:15:22.615Z,69.91
2022-09-02T19:17:50.669Z,70.12
2022-09-02T19:20:19.430Z,70.47
2022-09-02T19:22:52.657Z,70.72
2022-09-02T19:25:26.466Z,71.09
2022-09-02T19:27:56.772Z,71.40
2022-09-02T19:30:25.662Z,71.54
2022-09-02T19:32:58.263Z,71.77
2022-09-02T19:35:30.396Z,72.08
2022-09-02T19:37:58.106Z,72.19
2022-09-02T19:40:31.896Z,72.34
2022-09-02T19:43:05.983Z,72.26
2022-09-02T19:45:38.574Z,72.38
2022-09-02T19:48:10.853Z,72.41
2022-09-02T19:50:42.159Z,72.32
2022-09-02T19:53:28.960Z,72.33
2022-09-02T19:56:01.033Z,72.45
2022-09-02T19:58:28.990Z,72.35
2022-09-02T20:00:58.050Z,72.26
2022-09-02T20:03:26.182Z,72.21
2022-09-02T20:05:53.955Z,72.13
2022-09-02T20:08:23.367Z,72.14
2022-09-02T20:11:00.176Z,72.16
2022-09-02T20:13:29.628Z,72.33
2022-09-02T20:15:58.116Z,72.20
2022-09-02T20:18:27.967Z,72.24
2022-09-02T20:20:58.937Z,72.36
2022-09-02T20:23:29.246Z,72.75
2022-09-02T20:26:05.859Z,72.99
2022-09-02T20:28:58.744Z,73.46
2022-09-02T20:31:52.077Z,73.85
2022-09-02T20:35:07.431Z,74.15
2022-09-02T20:37:53.033Z,74.29
2022-09-02T20:40:23.742Z,73.90
2022-09-02T20:43:18.074Z,73.99
2022-09-02T20:46:05.964Z,74.27
2022-09-02T20:49:00.421Z,74.52
2022-09-02T20:51:43.397Z,74.82
2022-09-02T20:54:48.751Z,75.35
2022-09-02T20:57:48.353Z,75.72
2022-09-02T21:00:20.651Z,75.75
2022-09-02T21:02:58.952Z,75.39
2022-09-02T21:05:35.286Z,75.52
2022-09-02T21:08:07.078Z,75.40
2022-09-02T21:10:39.975Z,75.20
2022-09-02T21:13:18.363Z,75.10
2022-09-02T21:15:50.543Z,75.20
2022-09-02T21:18:45.521Z,75.18
2022-09-02T21:21:37.702Z,75.31
2022-09-02T21:24:15.314Z,75.33
2022-09-02T21:26:56.768Z,75.29
2022-09-02T21:29:29.093Z,75.65
2022-09-02T21:32:05.254Z,75.48
2022-09-02T21:35:00.925Z,75.59
2022-09-02T21:37:33.142Z,75.64
2022-09-02T21:40:08.974Z,75.63
2022-09-02T21:42:57.955Z,75.87
2022-09-02T21:46:06.589Z,76.01
2022-09-02T21:48:58.407Z,76.16
2022-09-02T21:51:35.064Z,76.27
2022-09-02T21:54:28.985Z,76.41
2022-09-02T21:57:30.381Z,76.63
2022-09-02T22:00:07.383Z,76.83
2022-09-02T22:02:59.229Z,76.73
2022-09-02T22:05:42.766Z,77.25
2022-09-02T22:08:12.408Z,77.73
2022-09-02T22:10:46.433Z,77.69
2022-09-02T22:13:14.502Z,78.39
2022-09-02T22:16:14.355Z,78.37
2022-09-02T22:18:53.360Z,79.39
2022-09-02T22:21:34.414Z,79.22
2022-09-02T22:24:03.938Z,79.48
2022-09-02T22:26:40.020Z,79.27
2022-09-02T22:29:37.648Z,79.82
2022-09-02T22:32:09.928Z,79.90
2022-09-02T22:35:14.796Z,79.98
2022-09-02T22:38:03.968Z,80.23
2022-09-02T22:40:35.381Z,80.29
2022-09-02T22:43:08.278Z,80.04
2022-09-02T22:46:05.022Z,80.23
2022-09-02T22:48:58.636Z,80.44
2022-09-02T22:52:09.730Z,80.71
2022-09-02T22:54:37.725Z,80.75
2022-09-02T22:57:34.421Z,80.47
2022-09-02T23:00:10.498Z,80.84
2022-09-02T23:03:02.658Z,80.69
2022-09-02T23:05:50.464Z,81.22
2022-09-02T23:08:22.963Z,81.34
2022-09-02T23:11:09.313Z,81.12
2022-09-02T23:13:43.908Z,81.62
2022-09-02T23:16:36.266Z,81.59
2022-09-02T23:19:19.422Z,81.78
2022-09-02T23:22:13.193Z,81.65
2022-09-02T23:24:46.087Z,82.64
2022-09-02T23:27:38.297Z,82.38
2022-09-02T23:30:06.438Z,83.50
2022-09-02T23:33:03.715Z,83.49
2022-09-02T23:35:54.773Z,84.32
2022-09-02T23:38:37.291Z,84.82
2022-09-02T23:41:10.216Z,84.68
2022-09-02T23:43:40.584Z,84.99
2022-09-02T23:46:34.550Z,84.71
2022-09-02T23:49:28.767Z,85.20
2022-09-02T23:52:20.684Z,85.66
2022-09-02T23:54:54.103Z,85.46
2022-09-02T23:57:44.194Z,85.06
